sensor_id;sensor_type;location;lat;lon;timestamp;P1;durP1;ratioP1;P2;durP2;ratioP2
13083;SDS011;6608;48.790;9.198;2022-07-23T00:00:08;192.20;;;75.93;;
13083;SDS011;6608;48.790;9.198;2022-07-23T00:02:35;191.67;;;76.07;;
13083;SDS011;6608;48.790;9.198;2022-07-23T00:05:01;189.00;;;75.13;;
13083;SDS011;6608;48.790;9.198;2022-07-23T00:07:29;188.30;;;76.20;;
13083;SDS011;6608;48.790;9.198;2022-07-23T00:09:56;189.13;;;74.80;;
13083;SDS011;6608;48.790;9.198;2022-07-23T00:12:22;192.03;;;75.53;;
13083;SDS011;6608;48.790;9.198;2022-07-23T00:14:49;188.17;;;74.60;;
13083;SDS011;6608;48.790;9.198;2022-07-23T00:17:15;188.97;;;75.60;;
13083;SDS011;6608;48.790;9.198;2022-07-23T00:19:42;189.63;;;74.63;;
13083;SDS011;6608;48.790;9.198;2022-07-23T00:22:08;189.90;;;75.17;;
13083;SDS011;6608;48.790;9.198;2022-07-23T00:24:36;189.33;;;75.03;;
13083;SDS011;6608;48.790;9.198;2022-07-23T00:27:03;189.43;;;74.90;;
13083;SDS011;6608;48.790;9.198;2022-07-23T00:29:29;189.83;;;74.57;;
13083;SDS011;6608;48.790;9.198;2022-07-23T00:31:56;193.93;;;75.80;;
13083;SDS011;6608;48.790;9.198;2022-07-23T00:34:22;191.17;;;74.80;;
13083;SDS011;6608;48.790;9.198;2022-07-23T00:36:49;189.67;;;75.83;;
13083;SDS011;6608;48.790;9.198;2022-07-23T00:39:15;188.57;;;74.60;;
13083;SDS011;6608;48.790;9.198;2022-07-23T00:41:43;189.37;;;73.83;;
13083;SDS011;6608;48.790;9.198;2022-07-23T00:44:16;192.17;;;74.17;;
13083;SDS011;6608;48.790;9.198;2022-07-23T00:46:44;193.33;;;74.53;;
13083;SDS011;6608;48.790;9.198;2022-07-23T00:49:11;189.20;;;74.00;;
13083;SDS011;6608;48.790;9.198;2022-07-23T00:51:37;191.10;;;75.40;;
13083;SDS011;6608;48.790;9.198;2022-07-23T00:54:04;190.17;;;74.33;;
13083;SDS011;6608;48.790;9.198;2022-07-23T00:56:30;190.33;;;74.87;;
13083;SDS011;6608;48.790;9.198;2022-07-23T00:58:58;191.30;;;74.50;;
13083;SDS011;6608;48.790;9.198;2022-07-23T01:01:25;188.20;;;73.93;;
13083;SDS011;6608;48.790;9.198;2022-07-23T01:03:51;191.90;;;73.77;;
13083;SDS011;6608;48.790;9.198;2022-07-23T01:06:18;194.20;;;73.77;;
13083;SDS011;6608;48.790;9.198;2022-07-23T01:08:44;192.57;;;74.50;;
13083;SDS011;6608;48.790;9.198;2022-07-23T01:11:11;193.80;;;75.00;;
13083;SDS011;6608;48.790;9.198;2022-07-23T01:13:40;188.93;;;72.80;;
13083;SDS011;6608;48.790;9.198;2022-07-23T01:16:08;188.23;;;73.70;;
13083;SDS011;6608;48.790;9.198;2022-07-23T01:18:34;191.50;;;74.53;;
13083;SDS011;6608;48.790;9.198;2022-07-23T01:21:01;196.67;;;74.80;;
13083;SDS011;6608;48.790;9.198;2022-07-23T01:23:29;191.87;;;74.13;;
13083;SDS011;6608;48.790;9.198;2022-07-23T01:25:55;191.13;;;74.33;;
13083;SDS011;6608;48.790;9.198;2022-07-23T01:28:22;193.00;;;73.37;;
13083;SDS011;6608;48.790;9.198;2022-07-23T01:30:49;193.07;;;73.87;;
13083;SDS011;6608;48.790;9.198;2022-07-23T01:33:15;191.53;;;73.83;;
13083;SDS011;6608;48.790;9.198;2022-07-23T01:35:42;191.30;;;73.60;;
13083;SDS011;6608;48.790;9.198;2022-07-23T01:38:08;189.73;;;73.40;;
13083;SDS011;6608;48.790;9.198;2022-07-23T01:40:36;190.23;;;74.00;;
13083;SDS011;6608;48.790;9.198;2022-07-23T01:43:02;190.73;;;73.83;;
13083;SDS011;6608;48.790;9.198;2022-07-23T01:45:29;189.77;;;73.57;;
13083;SDS011;6608;48.790;9.198;2022-07-23T01:47:55;193.93;;;74.37;;
13083;SDS011;6608;48.790;9.198;2022-07-23T01:50:22;192.80;;;73.70;;
13083;SDS011;6608;48.790;9.198;2022-07-23T01:52:48;188.77;;;73.60;;
13083;SDS011;6608;48.790;9.198;2022-07-23T01:55:15;187.73;;;73.10;;
13083;SDS011;6608;48.790;9.198;2022-07-23T01:57:43;186.80;;;73.37;;
13083;SDS011;6608;48.790;9.198;2022-07-23T02:00:09;185.80;;;73.13;;
13083;SDS011;6608;48.790;9.198;2022-07-23T02:02:36;186.93;;;74.03;;
13083;SDS011;6608;48.790;9.198;2022-07-23T02:05:03;185.77;;;73.27;;
13083;SDS011;6608;48.790;9.198;2022-07-23T02:07:29;189.60;;;72.70;;
13083;SDS011;6608;48.790;9.198;2022-07-23T02:09:56;187.27;;;73.30;;
13083;SDS011;6608;48.790;9.198;2022-07-23T02:12:22;186.80;;;73.43;;
13083;SDS011;6608;48.790;9.198;2022-07-23T02:14:50;188.87;;;73.27;;
13083;SDS011;6608;48.790;9.198;2022-07-23T02:17:17;186.47;;;73.53;;
13083;SDS011;6608;48.790;9.198;2022-07-23T02:19:43;186.07;;;73.73;;
13083;SDS011;6608;48.790;9.198;2022-07-23T02:22:09;186.83;;;73.33;;
13083;SDS011;6608;48.790;9.198;2022-07-23T02:24:36;187.77;;;73.03;;
13083;SDS011;6608;48.790;9.198;2022-07-23T02:27:02;188.50;;;74.60;;
13083;SDS011;6608;48.790;9.198;2022-07-23T02:29:29;189.17;;;74.43;;
13083;SDS011;6608;48.790;9.198;2022-07-23T02:31:56;187.20;;;73.87;;
13083;SDS011;6608;48.790;9.198;2022-07-23T02:34:23;188.47;;;73.23;;
13083;SDS011;6608;48.790;9.198;2022-07-23T02:36:49;186.77;;;73.67;;
13083;SDS011;6608;48.790;9.198;2022-07-23T02:39:16;188.30;;;73.60;;
13083;SDS011;6608;48.790;9.198;2022-07-23T02:41:42;187.37;;;73.07;;
13083;SDS011;6608;48.790;9.198;2022-07-23T02:44:08;185.73;;;73.77;;
13083;SDS011;6608;48.790;9.198;2022-07-23T02:46:35;188.03;;;73.20;;
13083;SDS011;6608;48.790;9.198;2022-07-23T02:49:03;188.27;;;73.80;;
13083;SDS011;6608;48.790;9.198;2022-07-23T02:51:29;186.37;;;73.87;;
13083;SDS011;6608;48.790;9.198;2022-07-23T02:53:56;185.63;;;72.57;;
13083;SDS011;6608;48.790;9.198;2022-07-23T02:56:22;186.20;;;73.07;;
13083;SDS011;6608;48.790;9.198;2022-07-23T02:58:49;188.40;;;73.43;;
13083;SDS011;6608;48.790;9.198;2022-07-23T03:01:15;185.57;;;72.50;;
13083;SDS011;6608;48.790;9.198;2022-07-23T03:03:42;186.57;;;73.10;;
13083;SDS011;6608;48.790;9.198;2022-07-23T03:06:10;191.43;;;73.03;;
13083;SDS011;6608;48.790;9.198;2022-07-23T03:08:37;187.73;;;73.03;;
13083;SDS011;6608;48.790;9.198;2022-07-23T03:11:03;188.87;;;72.07;;
13083;SDS011;6608;48.790;9.198;2022-07-23T03:13:32;187.23;;;72.73;;
13083;SDS011;6608;48.790;9.198;2022-07-23T03:15:59;189.77;;;74.73;;
13083;SDS011;6608;48.790;9.198;2022-07-23T03:18:25;188.17;;;73.10;;
13083;SDS011;6608;48.790;9.198;2022-07-23T03:20:52;187.30;;;72.80;;
13083;SDS011;6608;48.790;9.198;2022-07-23T03:23:19;187.90;;;72.77;;
13083;SDS011;6608;48.790;9.198;2022-07-23T03:25:46;189.90;;;74.30;;
13083;SDS011;6608;48.790;9.198;2022-07-23T03:28:13;188.10;;;73.07;;
13083;SDS011;6608;48.790;9.198;2022-07-23T03:30:40;187.63;;;72.83;;
13083;SDS011;6608;48.790;9.198;2022-07-23T03:33:07;188.80;;;73.37;;
13083;SDS011;6608;48.790;9.198;2022-07-23T03:35:33;190.37;;;73.73;;
13083;SDS011;6608;48.790;9.198;2022-07-23T03:37:59;189.87;;;73.67;;
13083;SDS011;6608;48.790;9.198;2022-07-23T03:40:27;187.60;;;73.07;;
13083;SDS011;6608;48.790;9.198;2022-07-23T03:42:54;186.67;;;72.30;;
13083;SDS011;6608;48.790;9.198;2022-07-23T03:45:20;189.73;;;73.03;;
13083;SDS011;6608;48.790;9.198;2022-07-23T03:47:47;187.77;;;72.80;;
13083;SDS011;6608;48.790;9.198;2022-07-23T03:50:13;189.40;;;73.83;;
13083;SDS011;6608;48.790;9.198;2022-07-23T03:52:39;190.23;;;74.30;;
13083;SDS011;6608;48.790;9.198;2022-07-23T03:55:06;190.30;;;73.73;;
13083;SDS011;6608;48.790;9.198;2022-07-23T03:57:34;188.30;;;73.13;;
13083;SDS011;6608;48.790;9.198;2022-07-23T04:00:01;188.10;;;74.00;;
13083;SDS011;6608;48.790;9.198;2022-07-23T04:02:28;188.80;;;74.07;;
13083;SDS011;6608;48.790;9.198;2022-07-23T04:04:54;191.50;;;74.37;;
13083;SDS011;6608;48.790;9.198;2022-07-23T04:07:20;188.13;;;73.47;;
13083;SDS011;6608;48.790;9.198;2022-07-23T04:09:47;189.63;;;74.37;;
13083;SDS011;6608;48.790;9.198;2022-07-23T04:12:14;191.57;;;74.37;;
13083;SDS011;6608;48.790;9.198;2022-07-23T04:14:42;188.17;;;73.60;;
13083;SDS011;6608;48.790;9.198;2022-07-23T04:17:08;190.53;;;74.67;;
13083;SDS011;6608;48.790;9.198;2022-07-23T04:19:34;189.43;;;73.17;;
13083;SDS011;6608;48.790;9.198;2022-07-23T04:22:04;189.80;;;73.50;;
13083;SDS011;6608;48.790;9.198;2022-07-23T04:24:31;192.27;;;74.47;;
13083;SDS011;6608;48.790;9.198;2022-07-23T04:26:57;190.80;;;74.40;;
13083;SDS011;6608;48.790;9.198;2022-07-23T04:29:24;190.30;;;73.67;;
13083;SDS011;6608;48.790;9.198;2022-07-23T04:31:52;190.37;;;74.53;;
13083;SDS011;6608;48.790;9.198;2022-07-23T04:34:18;190.23;;;74.33;;
13083;SDS011;6608;48.790;9.198;2022-07-23T04:36:45;192.57;;;74.60;;
13083;SDS011;6608;48.790;9.198;2022-07-23T04:39:11;190.63;;;73.97;;
13083;SDS011;6608;48.790;9.198;2022-07-23T04:41:38;192.97;;;74.87;;
13083;SDS011;6608;48.790;9.198;2022-07-23T04:44:04;194.20;;;74.60;;
13083;SDS011;6608;48.790;9.198;2022-07-23T04:46:31;194.90;;;74.73;;
13083;SDS011;6608;48.790;9.198;2022-07-23T04:48:58;197.13;;;74.40;;
13083;SDS011;6608;48.790;9.198;2022-07-23T04:51:25;192.00;;;74.50;;
13083;SDS011;6608;48.790;9.198;2022-07-23T04:53:51;195.73;;;74.07;;
13083;SDS011;6608;48.790;9.198;2022-07-23T04:56:18;189.67;;;73.20;;
13083;SDS011;6608;48.790;9.198;2022-07-23T04:58:44;193.67;;;75.30;;
13083;SDS011;6608;48.790;9.198;2022-07-23T05:01:11;193.13;;;75.10;;
13083;SDS011;6608;48.790;9.198;2022-07-23T05:03:37;190.80;;;74.27;;
13083;SDS011;6608;48.790;9.198;2022-07-23T05:06:05;191.20;;;73.50;;
13083;SDS011;6608;48.790;9.198;2022-07-23T05:08:31;194.53;;;75.03;;
13083;SDS011;6608;48.790;9.198;2022-07-23T05:10:58;191.83;;;73.80;;
13083;SDS011;6608;48.790;9.198;2022-07-23T05:13:24;195.10;;;74.73;;
13083;SDS011;6608;48.790;9.198;2022-07-23T05:15:51;197.13;;;75.33;;
13083;SDS011;6608;48.790;9.198;2022-07-23T05:18:17;195.30;;;75.00;;
13083;SDS011;6608;48.790;9.198;2022-07-23T05:20:43;193.17;;;75.77;;
13083;SDS011;6608;48.790;9.198;2022-07-23T05:23:11;193.70;;;75.30;;
13083;SDS011;6608;48.790;9.198;2022-07-23T05:25:38;197.10;;;74.47;;
13083;SDS011;6608;48.790;9.198;2022-07-23T05:28:05;194.03;;;75.00;;
13083;SDS011;6608;48.790;9.198;2022-07-23T05:30:32;192.70;;;74.70;;
13083;SDS011;6608;48.790;9.198;2022-07-23T05:32:58;196.20;;;75.67;;
13083;SDS011;6608;48.790;9.198;2022-07-23T05:35:25;193.53;;;75.90;;
13083;SDS011;6608;48.790;9.198;2022-07-23T05:37:52;193.47;;;74.20;;
13083;SDS011;6608;48.790;9.198;2022-07-23T05:40:20;195.40;;;75.13;;
13083;SDS011;6608;48.790;9.198;2022-07-23T05:42:46;196.93;;;74.50;;
13083;SDS011;6608;48.790;9.198;2022-07-23T05:45:13;193.97;;;75.57;;
13083;SDS011;6608;48.790;9.198;2022-07-23T05:47:42;197.50;;;75.67;;
13083;SDS011;6608;48.790;9.198;2022-07-23T05:50:09;196.80;;;74.90;;
13083;SDS011;6608;48.790;9.198;2022-07-23T05:52:36;195.53;;;75.30;;
13083;SDS011;6608;48.790;9.198;2022-07-23T05:55:03;195.00;;;74.53;;
13083;SDS011;6608;48.790;9.198;2022-07-23T05:57:31;195.27;;;75.27;;
13083;SDS011;6608;48.790;9.198;2022-07-23T05:59:58;200.20;;;74.97;;
13083;SDS011;6608;48.790;9.198;2022-07-23T06:02:24;195.17;;;74.97;;
13083;SDS011;6608;48.790;9.198;2022-07-23T06:04:51;196.33;;;75.73;;
13083;SDS011;6608;48.790;9.198;2022-07-23T06:07:17;197.73;;;75.70;;
13083;SDS011;6608;48.790;9.198;2022-07-23T06:09:44;198.07;;;75.97;;
13083;SDS011;6608;48.790;9.198;2022-07-23T06:12:11;196.57;;;74.90;;
13083;SDS011;6608;48.790;9.198;2022-07-23T06:14:39;201.23;;;76.60;;
13083;SDS011;6608;48.790;9.198;2022-07-23T06:17:06;198.57;;;76.93;;
13083;SDS011;6608;48.790;9.198;2022-07-23T06:19:32;191.57;;;75.00;;
13083;SDS011;6608;48.790;9.198;2022-07-23T06:21:58;193.63;;;76.20;;
13083;SDS011;6608;48.790;9.198;2022-07-23T06:24:25;195.37;;;75.20;;
13083;SDS011;6608;48.790;9.198;2022-07-23T06:26:51;195.40;;;75.67;;
13083;SDS011;6608;48.790;9.198;2022-07-23T06:29:18;196.23;;;76.20;;
13083;SDS011;6608;48.790;9.198;2022-07-23T06:31:45;197.27;;;77.10;;
13083;SDS011;6608;48.790;9.198;2022-07-23T06:34:12;193.03;;;75.07;;
13083;SDS011;6608;48.790;9.198;2022-07-23T06:36:38;195.80;;;77.13;;
13083;SDS011;6608;48.790;9.198;2022-07-23T06:39:05;194.33;;;75.63;;
13083;SDS011;6608;48.790;9.198;2022-07-23T06:41:31;196.57;;;76.37;;
13083;SDS011;6608;48.790;9.198;2022-07-23T06:43:58;194.27;;;76.20;;
13083;SDS011;6608;48.790;9.198;2022-07-23T06:46:24;194.87;;;76.67;;
13083;SDS011;6608;48.790;9.198;2022-07-23T06:48:52;195.10;;;76.10;;
13083;SDS011;6608;48.790;9.198;2022-07-23T06:51:18;194.73;;;76.17;;
13083;SDS011;6608;48.790;9.198;2022-07-23T06:53:45;193.47;;;75.80;;
13083;SDS011;6608;48.790;9.198;2022-07-23T06:56:11;192.77;;;75.57;;
13083;SDS011;6608;48.790;9.198;2022-07-23T06:58:37;197.80;;;76.83;;
13083;SDS011;6608;48.790;9.198;2022-07-23T07:01:04;199.27;;;76.00;;
13083;SDS011;6608;48.790;9.198;2022-07-23T07:03:30;196.50;;;76.63;;
13083;SDS011;6608;48.790;9.198;2022-07-23T07:05:58;196.00;;;76.10;;
13083;SDS011;6608;48.790;9.198;2022-07-23T07:08:25;196.50;;;75.87;;
13083;SDS011;6608;48.790;9.198;2022-07-23T07:10:51;197.43;;;76.27;;
13083;SDS011;6608;48.790;9.198;2022-07-23T07:13:17;195.73;;;76.47;;
13083;SDS011;6608;48.790;9.198;2022-07-23T07:15:44;192.33;;;74.87;;
13083;SDS011;6608;48.790;9.198;2022-07-23T07:18:10;195.93;;;76.83;;
13083;SDS011;6608;48.790;9.198;2022-07-23T07:20:37;195.23;;;76.70;;
13083;SDS011;6608;48.790;9.198;2022-07-23T07:23:05;192.23;;;75.37;;
13083;SDS011;6608;48.790;9.198;2022-07-23T07:25:31;190.93;;;75.03;;
13083;SDS011;6608;48.790;9.198;2022-07-23T07:27:57;192.97;;;75.20;;
13083;SDS011;6608;48.790;9.198;2022-07-23T07:30:24;193.00;;;75.30;;
13083;SDS011;6608;48.790;9.198;2022-07-23T07:32:50;194.57;;;75.83;;
13083;SDS011;6608;48.790;9.198;2022-07-23T07:35:17;196.17;;;75.93;;
13083;SDS011;6608;48.790;9.198;2022-07-23T07:37:43;194.23;;;75.17;;
13083;SDS011;6608;48.790;9.198;2022-07-23T07:40:11;196.00;;;75.70;;
13083;SDS011;6608;48.790;9.198;2022-07-23T07:42:44;194.63;;;75.70;;
13083;SDS011;6608;48.790;9.198;2022-07-23T07:45:10;196.40;;;75.87;;
13083;SDS011;6608;48.790;9.198;2022-07-23T07:47:36;195.83;;;76.30;;
13083;SDS011;6608;48.790;9.198;2022-07-23T07:50:03;196.43;;;75.20;;
13083;SDS011;6608;48.790;9.198;2022-07-23T07:52:29;200.43;;;76.77;;
13083;SDS011;6608;48.790;9.198;2022-07-23T07:54:56;195.30;;;74.40;;
13083;SDS011;6608;48.790;9.198;2022-07-23T07:57:24;195.97;;;74.57;;
13083;SDS011;6608;48.790;9.198;2022-07-23T07:59:50;194.97;;;75.43;;
13083;SDS011;6608;48.790;9.198;2022-07-23T08:02:17;193.30;;;74.23;;
13083;SDS011;6608;48.790;9.198;2022-07-23T08:04:43;194.97;;;76.17;;
13083;SDS011;6608;48.790;9.198;2022-07-23T08:07:09;193.40;;;75.00;;
13083;SDS011;6608;48.790;9.198;2022-07-23T08:09:36;192.83;;;74.17;;
13083;SDS011;6608;48.790;9.198;2022-07-23T08:12:02;193.17;;;74.87;;
13083;SDS011;6608;48.790;9.198;2022-07-23T08:14:30;188.37;;;74.83;;
13083;SDS011;6608;48.790;9.198;2022-07-23T08:16:57;193.23;;;74.30;;
13083;SDS011;6608;48.790;9.198;2022-07-23T08:19:23;190.03;;;74.67;;
13083;SDS011;6608;48.790;9.198;2022-07-23T08:21:50;189.87;;;74.67;;
13083;SDS011;6608;48.790;9.198;2022-07-23T08:24:16;187.33;;;74.87;;
13083;SDS011;6608;48.790;9.198;2022-07-23T08:26:42;191.80;;;76.03;;
13083;SDS011;6608;48.790;9.198;2022-07-23T08:29:09;185.67;;;74.13;;
13083;SDS011;6608;48.790;9.198;2022-07-23T08:31:37;187.97;;;74.73;;
13083;SDS011;6608;48.790;9.198;2022-07-23T08:34:05;188.97;;;74.60;;
13083;SDS011;6608;48.790;9.198;2022-07-23T08:36:31;188.37;;;73.70;;
13083;SDS011;6608;48.790;9.198;2022-07-23T08:38:58;185.77;;;74.30;;
13083;SDS011;6608;48.790;9.198;2022-07-23T08:41:27;185.83;;;73.57;;
13083;SDS011;6608;48.790;9.198;2022-07-23T08:43:53;188.60;;;74.50;;
13083;SDS011;6608;48.790;9.198;2022-07-23T08:46:20;187.43;;;74.17;;
13083;SDS011;6608;48.790;9.198;2022-07-23T08:48:48;187.00;;;74.63;;
13083;SDS011;6608;48.790;9.198;2022-07-23T08:51:15;186.67;;;74.33;;
13083;SDS011;6608;48.790;9.198;2022-07-23T08:53:41;190.13;;;75.30;;
13083;SDS011;6608;48.790;9.198;2022-07-23T08:56:08;188.33;;;75.07;;
13083;SDS011;6608;48.790;9.198;2022-07-23T08:58:35;186.47;;;74.27;;
13083;SDS011;6608;48.790;9.198;2022-07-23T09:01:01;187.90;;;75.33;;
13083;SDS011;6608;48.790;9.198;2022-07-23T09:03:28;187.40;;;75.13;;
13083;SDS011;6608;48.790;9.198;2022-07-23T09:05:57;187.83;;;74.87;;
13083;SDS011;6608;48.790;9.198;2022-07-23T09:08:24;189.67;;;75.37;;
13083;SDS011;6608;48.790;9.198;2022-07-23T09:10:52;192.50;;;76.63;;
13083;SDS011;6608;48.790;9.198;2022-07-23T09:13:26;190.67;;;76.70;;
13083;SDS011;6608;48.790;9.198;2022-07-23T09:15:53;190.43;;;76.97;;
13083;SDS011;6608;48.790;9.198;2022-07-23T09:18:27;189.37;;;76.47;;
13083;SDS011;6608;48.790;9.198;2022-07-23T09:21:04;190.87;;;76.73;;
13083;SDS011;6608;48.790;9.198;2022-07-23T09:23:36;188.43;;;75.73;;
13083;SDS011;6608;48.790;9.198;2022-07-23T09:26:02;188.93;;;77.20;;
13083;SDS011;6608;48.790;9.198;2022-07-23T09:28:47;190.17;;;77.63;;
13083;SDS011;6608;48.790;9.198;2022-07-23T09:31:15;191.23;;;78.03;;
13083;SDS011;6608;48.790;9.198;2022-07-23T09:33:42;189.70;;;77.30;;
13083;SDS011;6608;48.790;9.198;2022-07-23T09:36:10;191.70;;;77.43;;
13083;SDS011;6608;48.790;9.198;2022-07-23T09:38:37;191.40;;;79.03;;
13083;SDS011;6608;48.790;9.198;2022-07-23T09:41:13;191.10;;;78.60;;
13083;SDS011;6608;48.790;9.198;2022-07-23T09:43:39;196.60;;;79.20;;
13083;SDS011;6608;48.790;9.198;2022-07-23T09:46:19;189.03;;;77.70;;
13083;SDS011;6608;48.790;9.198;2022-07-23T09:48:46;193.23;;;78.83;;
13083;SDS011;6608;48.790;9.198;2022-07-23T09:51:13;191.40;;;78.80;;
13083;SDS011;6608;48.790;9.198;2022-07-23T09:53:41;196.70;;;79.20;;
13083;SDS011;6608;48.790;9.198;2022-07-23T09:56:08;192.43;;;78.57;;
13083;SDS011;6608;48.790;9.198;2022-07-23T09:58:36;194.63;;;80.23;;
13083;SDS011;6608;48.790;9.198;2022-07-23T10:01:10;192.53;;;79.07;;
13083;SDS011;6608;48.790;9.198;2022-07-23T10:03:37;190.73;;;78.93;;
13083;SDS011;6608;48.790;9.198;2022-07-23T10:06:04;193.80;;;79.73;;
13083;SDS011;6608;48.790;9.198;2022-07-23T10:08:32;192.10;;;79.87;;
13083;SDS011;6608;48.790;9.198;2022-07-23T10:10:59;193.13;;;79.73;;
13083;SDS011;6608;48.790;9.198;2022-07-23T10:13:27;191.37;;;79.47;;
13083;SDS011;6608;48.790;9.198;2022-07-23T10:16:17;192.17;;;79.87;;
13083;SDS011;6608;48.790;9.198;2022-07-23T10:18:44;192.13;;;80.00;;
13083;SDS011;6608;48.790;9.198;2022-07-23T10:21:11;194.70;;;80.70;;
13083;SDS011;6608;48.790;9.198;2022-07-23T10:23:39;195.43;;;80.57;;
13083;SDS011;6608;48.790;9.198;2022-07-23T10:26:10;193.97;;;80.70;;
13083;SDS011;6608;48.790;9.198;2022-07-23T10:28:42;193.93;;;81.43;;
13083;SDS011;6608;48.790;9.198;2022-07-23T10:31:16;192.93;;;79.57;;
13083;SDS011;6608;48.790;9.198;2022-07-23T10:33:46;191.67;;;80.07;;
13083;SDS011;6608;48.790;9.198;2022-07-23T10:36:18;193.27;;;81.20;;
13083;SDS011;6608;48.790;9.198;2022-07-23T10:38:50;194.87;;;81.40;;
13083;SDS011;6608;48.790;9.198;2022-07-23T10:41:30;193.27;;;81.30;;
13083;SDS011;6608;48.790;9.198;2022-07-23T10:44:05;194.90;;;81.33;;
13083;SDS011;6608;48.790;9.198;2022-07-23T10:46:31;193.93;;;80.33;;
13083;SDS011;6608;48.790;9.198;2022-07-23T10:49:21;191.90;;;80.30;;
13083;SDS011;6608;48.790;9.198;2022-07-23T10:54:35;194.80;;;79.47;;
13083;SDS011;6608;48.790;9.198;2022-07-23T10:57:05;192.50;;;80.13;;
13083;SDS011;6608;48.790;9.198;2022-07-23T11:02:21;190.63;;;79.50;;
13083;SDS011;6608;48.790;9.198;2022-07-23T11:04:48;191.00;;;79.20;;
13083;SDS011;6608;48.790;9.198;2022-07-23T11:07:14;192.43;;;78.60;;
13083;SDS011;6608;48.790;9.198;2022-07-23T11:09:43;193.13;;;80.67;;
13083;SDS011;6608;48.790;9.198;2022-07-23T11:14:59;195.27;;;80.37;;
13083;SDS011;6608;48.790;9.198;2022-07-23T11:17:26;192.33;;;79.47;;
13083;SDS011;6608;48.790;9.198;2022-07-23T11:22:46;191.77;;;79.63;;
13083;SDS011;6608;48.790;9.198;2022-07-23T11:28:06;191.33;;;79.73;;
13083;SDS011;6608;48.790;9.198;2022-07-23T11:30:37;189.77;;;79.43;;
13083;SDS011;6608;48.790;9.198;2022-07-23T11:33:15;191.60;;;80.47;;
13083;SDS011;6608;48.790;9.198;2022-07-23T11:35:42;192.50;;;79.83;;
13083;SDS011;6608;48.790;9.198;2022-07-23T11:38:11;193.73;;;79.63;;
13083;SDS011;6608;48.790;9.198;2022-07-23T11:40:39;190.03;;;79.03;;
13083;SDS011;6608;48.790;9.198;2022-07-23T11:43:08;191.63;;;79.90;;
13083;SDS011;6608;48.790;9.198;2022-07-23T11:45:35;192.63;;;79.73;;
13083;SDS011;6608;48.790;9.198;2022-07-23T11:48:02;192.47;;;79.87;;
13083;SDS011;6608;48.790;9.198;2022-07-23T11:50:29;191.27;;;79.40;;
13083;SDS011;6608;48.790;9.198;2022-07-23T11:52:55;194.43;;;80.83;;
13083;SDS011;6608;48.790;9.198;2022-07-23T11:55:22;193.67;;;80.40;;
13083;SDS011;6608;48.790;9.198;2022-07-23T11:57:50;190.20;;;80.03;;
13083;SDS011;6608;48.790;9.198;2022-07-23T12:00:19;188.00;;;79.47;;
13083;SDS011;6608;48.790;9.198;2022-07-23T12:02:47;190.00;;;80.53;;
13083;SDS011;6608;48.790;9.198;2022-07-23T12:05:14;190.23;;;81.53;;
13083;SDS011;6608;48.790;9.198;2022-07-23T12:07:42;190.73;;;81.57;;
13083;SDS011;6608;48.790;9.198;2022-07-23T12:10:10;192.23;;;80.37;;
13083;SDS011;6608;48.790;9.198;2022-07-23T12:12:37;190.67;;;80.03;;
13083;SDS011;6608;48.790;9.198;2022-07-23T12:15:04;191.20;;;82.60;;
13083;SDS011;6608;48.790;9.198;2022-07-23T12:17:33;191.27;;;81.37;;
13083;SDS011;6608;48.790;9.198;2022-07-23T12:20:00;191.83;;;82.37;;
13083;SDS011;6608;48.790;9.198;2022-07-23T12:22:33;191.27;;;81.43;;
13083;SDS011;6608;48.790;9.198;2022-07-23T12:25:00;191.33;;;81.17;;
13083;SDS011;6608;48.790;9.198;2022-07-23T12:27:27;188.70;;;80.00;;
13083;SDS011;6608;48.790;9.198;2022-07-23T12:29:54;189.63;;;80.27;;
13083;SDS011;6608;48.790;9.198;2022-07-23T12:32:21;188.60;;;79.93;;
13083;SDS011;6608;48.790;9.198;2022-07-23T12:34:50;188.47;;;80.00;;
13083;SDS011;6608;48.790;9.198;2022-07-23T12:37:29;190.57;;;80.47;;
13083;SDS011;6608;48.790;9.198;2022-07-23T12:39:56;190.60;;;80.80;;
13083;SDS011;6608;48.790;9.198;2022-07-23T12:42:23;190.73;;;80.27;;
13083;SDS011;6608;48.790;9.198;2022-07-23T12:45:06;190.87;;;82.03;;
13083;SDS011;6608;48.790;9.198;2022-07-23T12:53:02;194.13;;;81.90;;
13083;SDS011;6608;48.790;9.198;2022-07-23T12:55:29;190.63;;;81.47;;
13083;SDS011;6608;48.790;9.198;2022-07-23T12:58:02;191.10;;;81.77;;
13083;SDS011;6608;48.790;9.198;2022-07-23T13:00:29;190.30;;;81.53;;
13083;SDS011;6608;48.790;9.198;2022-07-23T13:02:56;189.70;;;80.53;;
13083;SDS011;6608;48.790;9.198;2022-07-23T13:05:22;197.53;;;81.17;;
13083;SDS011;6608;48.790;9.198;2022-07-23T13:07:48;191.70;;;80.57;;
13083;SDS011;6608;48.790;9.198;2022-07-23T13:10:16;190.63;;;80.50;;
13083;SDS011;6608;48.790;9.198;2022-07-23T13:12:43;189.63;;;80.67;;
13083;SDS011;6608;48.790;9.198;2022-07-23T13:15:09;191.43;;;80.13;;
13083;SDS011;6608;48.790;9.198;2022-07-23T13:17:36;190.90;;;80.23;;
13083;SDS011;6608;48.790;9.198;2022-07-23T13:20:02;189.57;;;79.73;;
13083;SDS011;6608;48.790;9.198;2022-07-23T13:22:29;191.03;;;80.47;;
13083;SDS011;6608;48.790;9.198;2022-07-23T13:24:55;191.93;;;80.53;;
13083;SDS011;6608;48.790;9.198;2022-07-23T13:27:23;189.93;;;80.17;;
13083;SDS011;6608;48.790;9.198;2022-07-23T13:29:50;194.87;;;81.70;;
13083;SDS011;6608;48.790;9.198;2022-07-23T13:32:16;191.30;;;80.53;;
13083;SDS011;6608;48.790;9.198;2022-07-23T13:34:43;190.40;;;80.23;;
13083;SDS011;6608;48.790;9.198;2022-07-23T13:37:09;190.17;;;81.00;;
13083;SDS011;6608;48.790;9.198;2022-07-23T13:39:38;188.20;;;80.37;;
13083;SDS011;6608;48.790;9.198;2022-07-23T13:42:04;190.87;;;81.27;;
13083;SDS011;6608;48.790;9.198;2022-07-23T13:44:33;192.27;;;80.93;;
13083;SDS011;6608;48.790;9.198;2022-07-23T13:46:59;190.23;;;81.83;;
13083;SDS011;6608;48.790;9.198;2022-07-23T13:49:25;189.00;;;80.67;;
13083;SDS011;6608;48.790;9.198;2022-07-23T13:51:52;190.67;;;82.87;;
13083;SDS011;6608;48.790;9.198;2022-07-23T13:54:18;190.90;;;83.20;;
13083;SDS011;6608;48.790;9.198;2022-07-23T13:56:45;191.73;;;82.50;;
13083;SDS011;6608;48.790;9.198;2022-07-23T13:59:11;191.97;;;81.53;;
13083;SDS011;6608;48.790;9.198;2022-07-23T14:01:39;190.00;;;82.53;;
13083;SDS011;6608;48.790;9.198;2022-07-23T14:04:05;191.00;;;82.03;;
13083;SDS011;6608;48.790;9.198;2022-07-23T14:06:32;192.30;;;81.60;;
13083;SDS011;6608;48.790;9.198;2022-07-23T14:08:58;193.97;;;82.70;;
13083;SDS011;6608;48.790;9.198;2022-07-23T14:11:25;191.43;;;81.60;;
13083;SDS011;6608;48.790;9.198;2022-07-23T14:13:51;194.90;;;81.47;;
13083;SDS011;6608;48.790;9.198;2022-07-23T14:16:17;190.67;;;80.73;;
13083;SDS011;6608;48.790;9.198;2022-07-23T14:18:45;194.23;;;81.40;;
13083;SDS011;6608;48.790;9.198;2022-07-23T14:21:12;191.90;;;80.63;;
13083;SDS011;6608;48.790;9.198;2022-07-23T14:23:38;194.03;;;81.83;;
13083;SDS011;6608;48.790;9.198;2022-07-23T14:26:05;190.77;;;80.17;;
13083;SDS011;6608;48.790;9.198;2022-07-23T14:28:32;190.43;;;79.90;;
13083;SDS011;6608;48.790;9.198;2022-07-23T14:30:58;191.40;;;79.93;;
13083;SDS011;6608;48.790;9.198;2022-07-23T14:33:25;194.17;;;80.43;;
13083;SDS011;6608;48.790;9.198;2022-07-23T14:35:53;194.47;;;80.47;;
13083;SDS011;6608;48.790;9.198;2022-07-23T14:38:19;192.47;;;81.10;;
13083;SDS011;6608;48.790;9.198;2022-07-23T14:40:46;192.47;;;81.43;;